sensor_id;sensor_type;location;lat;lon;timestamp;P1;durP1;ratioP1;P2;durP2;ratioP2
4748;SDS011;2388;53.582;9.962;2022-09-09T00:01:23;21.33;;;18.67;;
4748;SDS011;2388;53.582;9.962;2022-09-09T00:04:39;20.83;;;16.57;;
4748;SDS011;2388;53.582;9.962;2022-09-09T00:06:50;20.60;;;17.63;;
4748;SDS011;2388;53.582;9.962;2022-09-09T00:09:39;19.97;;;17.13;;
4748;SDS011;2388;53.582;9.962;2022-09-09T00:12:17;18.47;;;16.30;;
4748;SDS011;2388;53.582;9.962;2022-09-09T00:15:03;18.53;;;16.07;;
4748;SDS011;2388;53.582;9.962;2022-09-09T00:17:38;19.10;;;16.97;;
4748;SDS011;2388;53.582;9.962;2022-09-09T00:20:28;17.80;;;15.03;;
4748;SDS011;2388;53.582;9.962;2022-09-09T00:23:04;19.73;;;16.27;;
4748;SDS011;2388;53.582;9.962;2022-09-09T00:25:34;18.10;;;15.87;;
4748;SDS011;2388;53.582;9.962;2022-09-09T00:28:13;22.27;;;18.20;;
4748;SDS011;2388;53.582;9.962;2022-09-09T00:30:43;18.47;;;16.30;;
4748;SDS011;2388;53.582;9.962;2022-09-09T00:33:12;21.50;;;17.60;;
4748;SDS011;2388;53.582;9.962;2022-09-09T00:35:44;22.30;;;17.40;;
4748;SDS011;2388;53.582;9.962;2022-09-09T00:40:55;23.60;;;19.80;;
4748;SDS011;2388;53.582;9.962;2022-09-09T00:43:29;24.10;;;19.63;;
4748;SDS011;2388;53.582;9.962;2022-09-09T00:48:55;21.60;;;17.57;;
4748;SDS011;2388;53.582;9.962;2022-09-09T00:54:38;26.60;;;20.63;;
4748;SDS011;2388;53.582;9.962;2022-09-09T00:57:28;36.53;;;23.57;;
4748;SDS011;2388;53.582;9.962;2022-09-09T01:00:38;29.30;;;21.67;;
4748;SDS011;2388;53.582;9.962;2022-09-09T01:11:01;34.20;;;24.87;;
4748;SDS011;2388;53.582;9.962;2022-09-09T01:13:31;33.97;;;24.67;;
4748;SDS011;2388;53.582;9.962;2022-09-09T01:15:59;30.70;;;22.37;;
4748;SDS011;2388;53.582;9.962;2022-09-09T01:18:32;35.37;;;24.50;;
4748;SDS011;2388;53.582;9.962;2022-09-09T01:24:15;28.33;;;23.40;;
4748;SDS011;2388;53.582;9.962;2022-09-09T01:26:54;30.63;;;23.00;;
4748;SDS011;2388;53.582;9.962;2022-09-09T01:29:27;34.30;;;23.70;;
4748;SDS011;2388;53.582;9.962;2022-09-09T01:34:24;30.53;;;21.70;;
4748;SDS011;2388;53.582;9.962;2022-09-09T01:39:26;31.10;;;23.50;;
4748;SDS011;2388;53.582;9.962;2022-09-09T01:41:53;26.20;;;20.63;;
4748;SDS011;2388;53.582;9.962;2022-09-09T01:44:21;29.50;;;21.73;;
4748;SDS011;2388;53.582;9.962;2022-09-09T01:46:47;30.67;;;22.87;;
4748;SDS011;2388;53.582;9.962;2022-09-09T01:49:12;29.67;;;21.40;;
4748;SDS011;2388;53.582;9.962;2022-09-09T01:51:38;31.67;;;23.43;;
4748;SDS011;2388;53.582;9.962;2022-09-09T01:54:05;29.30;;;20.87;;
4748;SDS011;2388;53.582;9.962;2022-09-09T01:56:49;29.07;;;21.50;;
4748;SDS011;2388;53.582;9.962;2022-09-09T01:59:48;25.00;;;19.60;;
4748;SDS011;2388;53.582;9.962;2022-09-09T02:05:36;25.80;;;20.27;;
4748;SDS011;2388;53.582;9.962;2022-09-09T02:08:07;26.10;;;19.30;;
4748;SDS011;2388;53.582;9.962;2022-09-09T02:10:39;25.37;;;19.33;;
4748;SDS011;2388;53.582;9.962;2022-09-09T02:13:25;28.03;;;19.27;;
4748;SDS011;2388;53.582;9.962;2022-09-09T02:15:58;28.03;;;20.20;;
4748;SDS011;2388;53.582;9.962;2022-09-09T02:18:49;28.20;;;18.67;;
4748;SDS011;2388;53.582;9.962;2022-09-09T02:21:34;27.73;;;20.47;;
4748;SDS011;2388;53.582;9.962;2022-09-09T02:24:02;23.43;;;18.57;;
4748;SDS011;2388;53.582;9.962;2022-09-09T02:26:32;28.53;;;19.23;;
4748;SDS011;2388;53.582;9.962;2022-09-09T02:29:01;25.93;;;19.60;;
4748;SDS011;2388;53.582;9.962;2022-09-09T02:31:31;24.90;;;19.23;;
4748;SDS011;2388;53.582;9.962;2022-09-09T02:34:00;25.43;;;18.57;;
4748;SDS011;2388;53.582;9.962;2022-09-09T02:36:29;26.37;;;18.17;;
4748;SDS011;2388;53.582;9.962;2022-09-09T02:38:58;28.83;;;20.60;;
4748;SDS011;2388;53.582;9.962;2022-09-09T02:41:30;25.50;;;19.60;;
4748;SDS011;2388;53.582;9.962;2022-09-09T02:43:58;24.40;;;18.93;;
4748;SDS011;2388;53.582;9.962;2022-09-09T02:46:39;26.67;;;18.60;;
4748;SDS011;2388;53.582;9.962;2022-09-09T02:49:17;25.07;;;18.03;;
4748;SDS011;2388;53.582;9.962;2022-09-09T02:52:00;24.30;;;17.77;;
4748;SDS011;2388;53.582;9.962;2022-09-09T02:54:32;21.63;;;16.70;;
4748;SDS011;2388;53.582;9.962;2022-09-09T02:57:02;21.87;;;17.17;;
4748;SDS011;2388;53.582;9.962;2022-09-09T02:59:35;23.57;;;18.83;;
4748;SDS011;2388;53.582;9.962;2022-09-09T03:02:02;26.13;;;18.70;;
4748;SDS011;2388;53.582;9.962;2022-09-09T03:04:27;20.83;;;17.20;;
4748;SDS011;2388;53.582;9.962;2022-09-09T03:06:53;22.13;;;18.23;;
4748;SDS011;2388;53.582;9.962;2022-09-09T03:09:19;21.50;;;15.87;;
4748;SDS011;2388;53.582;9.962;2022-09-09T03:11:44;19.80;;;16.50;;
4748;SDS011;2388;53.582;9.962;2022-09-09T03:14:10;17.70;;;15.20;;
4748;SDS011;2388;53.582;9.962;2022-09-09T03:16:36;18.93;;;14.73;;
4748;SDS011;2388;53.582;9.962;2022-09-09T03:19:02;21.17;;;16.17;;
4748;SDS011;2388;53.582;9.962;2022-09-09T03:21:27;23.40;;;17.97;;
4748;SDS011;2388;53.582;9.962;2022-09-09T03:23:53;18.03;;;15.07;;
4748;SDS011;2388;53.582;9.962;2022-09-09T03:26:19;21.10;;;15.40;;
4748;SDS011;2388;53.582;9.962;2022-09-09T03:28:45;17.30;;;15.37;;
4748;SDS011;2388;53.582;9.962;2022-09-09T03:31:10;17.80;;;15.00;;
4748;SDS011;2388;53.582;9.962;2022-09-09T03:33:37;20.57;;;14.50;;
4748;SDS011;2388;53.582;9.962;2022-09-09T03:36:03;20.13;;;14.50;;
4748;SDS011;2388;53.582;9.962;2022-09-09T03:38:29;16.57;;;14.73;;
4748;SDS011;2388;53.582;9.962;2022-09-09T03:40:56;17.80;;;14.47;;
4748;SDS011;2388;53.582;9.962;2022-09-09T03:43:25;15.30;;;13.40;;
4748;SDS011;2388;53.582;9.962;2022-09-09T03:45:51;16.83;;;14.07;;
4748;SDS011;2388;53.582;9.962;2022-09-09T03:48:21;20.10;;;17.07;;
4748;SDS011;2388;53.582;9.962;2022-09-09T03:50:51;16.83;;;14.33;;
4748;SDS011;2388;53.582;9.962;2022-09-09T03:53:18;17.70;;;13.10;;
4748;SDS011;2388;53.582;9.962;2022-09-09T03:55:49;17.47;;;13.23;;
4748;SDS011;2388;53.582;9.962;2022-09-09T03:58:19;17.70;;;13.63;;
4748;SDS011;2388;53.582;9.962;2022-09-09T04:00:56;16.03;;;13.03;;
4748;SDS011;2388;53.582;9.962;2022-09-09T04:03:23;13.80;;;12.33;;
4748;SDS011;2388;53.582;9.962;2022-09-09T04:05:50;13.10;;;11.50;;
4748;SDS011;2388;53.582;9.962;2022-09-09T04:08:16;14.73;;;13.07;;
4748;SDS011;2388;53.582;9.962;2022-09-09T04:10:44;19.47;;;12.87;;
4748;SDS011;2388;53.582;9.962;2022-09-09T04:13:11;16.20;;;13.30;;
4748;SDS011;2388;53.582;9.962;2022-09-09T04:15:39;15.30;;;12.90;;
4748;SDS011;2388;53.582;9.962;2022-09-09T04:18:04;15.83;;;14.13;;
4748;SDS011;2388;53.582;9.962;2022-09-09T04:20:31;16.60;;;13.70;;
4748;SDS011;2388;53.582;9.962;2022-09-09T04:22:56;16.47;;;13.13;;
4748;SDS011;2388;53.582;9.962;2022-09-09T04:25:22;16.10;;;13.37;;
4748;SDS011;2388;53.582;9.962;2022-09-09T04:27:47;16.03;;;12.60;;
4748;SDS011;2388;53.582;9.962;2022-09-09T04:30:18;15.27;;;13.30;;
4748;SDS011;2388;53.582;9.962;2022-09-09T04:32:43;14.50;;;12.00;;
4748;SDS011;2388;53.582;9.962;2022-09-09T04:35:09;16.97;;;12.90;;
4748;SDS011;2388;53.582;9.962;2022-09-09T04:37:34;15.20;;;13.60;;
4748;SDS011;2388;53.582;9.962;2022-09-09T04:39:59;13.70;;;12.30;;
4748;SDS011;2388;53.582;9.962;2022-09-09T04:42:27;15.07;;;12.73;;
4748;SDS011;2388;53.582;9.962;2022-09-09T04:44:52;14.17;;;12.20;;
4748;SDS011;2388;53.582;9.962;2022-09-09T04:47:19;14.33;;;12.87;;
4748;SDS011;2388;53.582;9.962;2022-09-09T04:49:44;14.80;;;12.77;;
4748;SDS011;2388;53.582;9.962;2022-09-09T04:52:10;20.43;;;12.50;;
4748;SDS011;2388;53.582;9.962;2022-09-09T04:54:36;13.80;;;11.90;;
4748;SDS011;2388;53.582;9.962;2022-09-09T04:57:02;15.80;;;11.80;;
4748;SDS011;2388;53.582;9.962;2022-09-09T04:59:27;14.73;;;11.27;;
4748;SDS011;2388;53.582;9.962;2022-09-09T05:01:53;12.93;;;10.93;;
4748;SDS011;2388;53.582;9.962;2022-09-09T05:04:20;12.70;;;11.17;;
4748;SDS011;2388;53.582;9.962;2022-09-09T05:06:45;12.13;;;10.83;;
4748;SDS011;2388;53.582;9.962;2022-09-09T05:09:11;16.53;;;12.07;;
4748;SDS011;2388;53.582;9.962;2022-09-09T05:11:36;12.37;;;10.17;;
4748;SDS011;2388;53.582;9.962;2022-09-09T05:14:03;18.53;;;11.60;;
4748;SDS011;2388;53.582;9.962;2022-09-09T05:16:29;19.10;;;16.20;;
4748;SDS011;2388;53.582;9.962;2022-09-09T05:18:55;13.00;;;10.67;;
4748;SDS011;2388;53.582;9.962;2022-09-09T05:21:22;10.50;;;9.40;;
4748;SDS011;2388;53.582;9.962;2022-09-09T05:23:50;9.80;;;8.80;;
4748;SDS011;2388;53.582;9.962;2022-09-09T05:26:17;11.50;;;8.77;;
4748;SDS011;2388;53.582;9.962;2022-09-09T05:28:44;9.53;;;8.63;;
4748;SDS011;2388;53.582;9.962;2022-09-09T05:31:10;8.50;;;7.67;;
4748;SDS011;2388;53.582;9.962;2022-09-09T05:33:37;10.63;;;8.73;;
4748;SDS011;2388;53.582;9.962;2022-09-09T05:36:06;11.40;;;9.43;;
4748;SDS011;2388;53.582;9.962;2022-09-09T05:38:33;10.00;;;8.70;;
4748;SDS011;2388;53.582;9.962;2022-09-09T05:41:00;9.50;;;8.40;;
4748;SDS011;2388;53.582;9.962;2022-09-09T05:43:27;11.70;;;9.10;;
4748;SDS011;2388;53.582;9.962;2022-09-09T05:48:30;10.73;;;9.20;;
4748;SDS011;2388;53.582;9.962;2022-09-09T05:50:58;7.73;;;7.03;;
4748;SDS011;2388;53.582;9.962;2022-09-09T05:53:24;15.90;;;8.50;;
4748;SDS011;2388;53.582;9.962;2022-09-09T05:55:50;9.73;;;8.70;;
4748;SDS011;2388;53.582;9.962;2022-09-09T05:58:23;9.03;;;8.10;;
4748;SDS011;2388;53.582;9.962;2022-09-09T06:00:49;8.87;;;7.93;;
4748;SDS011;2388;53.582;9.962;2022-09-09T06:03:15;9.27;;;8.37;;
4748;SDS011;2388;53.582;9.962;2022-09-09T06:05:41;11.37;;;7.83;;
4748;SDS011;2388;53.582;9.962;2022-09-09T06:08:07;8.53;;;7.60;;
4748;SDS011;2388;53.582;9.962;2022-09-09T06:10:32;9.63;;;8.73;;
4748;SDS011;2388;53.582;9.962;2022-09-09T06:12:59;9.93;;;8.50;;
4748;SDS011;2388;53.582;9.962;2022-09-09T06:15:24;9.00;;;7.43;;
4748;SDS011;2388;53.582;9.962;2022-09-09T06:17:54;11.23;;;7.20;;
4748;SDS011;2388;53.582;9.962;2022-09-09T06:20:20;10.37;;;8.17;;
4748;SDS011;2388;53.582;9.962;2022-09-09T06:22:46;10.53;;;8.37;;
4748;SDS011;2388;53.582;9.962;2022-09-09T06:25:13;8.00;;;7.20;;
4748;SDS011;2388;53.582;9.962;2022-09-09T06:27:39;10.40;;;7.33;;
4748;SDS011;2388;53.582;9.962;2022-09-09T06:30:05;9.17;;;6.50;;
4748;SDS011;2388;53.582;9.962;2022-09-09T06:32:32;11.13;;;7.93;;
4748;SDS011;2388;53.582;9.962;2022-09-09T06:34:59;8.53;;;7.67;;
4748;SDS011;2388;53.582;9.962;2022-09-09T06:37:26;8.87;;;7.60;;
4748;SDS011;2388;53.582;9.962;2022-09-09T06:39:52;8.93;;;7.37;;
4748;SDS011;2388;53.582;9.962;2022-09-09T06:42:19;7.90;;;7.17;;
4748;SDS011;2388;53.582;9.962;2022-09-09T06:44:45;10.73;;;7.97;;
4748;SDS011;2388;53.582;9.962;2022-09-09T06:47:10;8.30;;;7.50;;
4748;SDS011;2388;53.582;9.962;2022-09-09T06:49:36;8.83;;;7.80;;
4748;SDS011;2388;53.582;9.962;2022-09-09T06:52:01;8.83;;;7.27;;
4748;SDS011;2388;53.582;9.962;2022-09-09T06:54:27;6.60;;;6.10;;
4748;SDS011;2388;53.582;9.962;2022-09-09T06:56:53;7.53;;;6.73;;
4748;SDS011;2388;53.582;9.962;2022-09-09T06:59:18;9.43;;;7.47;;
4748;SDS011;2388;53.582;9.962;2022-09-09T07:01:44;6.77;;;6.17;;
4748;SDS011;2388;53.582;9.962;2022-09-09T07:04:10;9.60;;;7.00;;
4748;SDS011;2388;53.582;9.962;2022-09-09T07:06:37;15.63;;;7.73;;
4748;SDS011;2388;53.582;9.962;2022-09-09T07:09:05;6.90;;;6.30;;
4748;SDS011;2388;53.582;9.962;2022-09-09T07:11:36;8.90;;;6.93;;
4748;SDS011;2388;53.582;9.962;2022-09-09T07:14:03;7.30;;;6.60;;
4748;SDS011;2388;53.582;9.962;2022-09-09T07:16:29;8.10;;;7.30;;
4748;SDS011;2388;53.582;9.962;2022-09-09T07:18:56;9.73;;;6.63;;
4748;SDS011;2388;53.582;9.962;2022-09-09T07:21:22;7.83;;;7.03;;
4748;SDS011;2388;53.582;9.962;2022-09-09T07:23:49;7.37;;;6.30;;
4748;SDS011;2388;53.582;9.962;2022-09-09T07:26:19;7.13;;;6.30;;
4748;SDS011;2388;53.582;9.962;2022-09-09T07:28:45;10.73;;;6.90;;
4748;SDS011;2388;53.582;9.962;2022-09-09T07:31:16;8.97;;;6.10;;
4748;SDS011;2388;53.582;9.962;2022-09-09T07:33:43;12.00;;;6.40;;
4748;SDS011;2388;53.582;9.962;2022-09-09T07:36:13;10.90;;;5.60;;
4748;SDS011;2388;53.582;9.962;2022-09-09T07:38:45;8.17;;;5.80;;
4748;SDS011;2388;53.582;9.962;2022-09-09T07:41:13;7.50;;;6.00;;
4748;SDS011;2388;53.582;9.962;2022-09-09T07:43:42;12.00;;;5.27;;
4748;SDS011;2388;53.582;9.962;2022-09-09T07:46:10;7.07;;;6.27;;
4748;SDS011;2388;53.582;9.962;2022-09-09T07:48:37;5.00;;;4.60;;
4748;SDS011;2388;53.582;9.962;2022-09-09T07:51:04;4.60;;;4.30;;
4748;SDS011;2388;53.582;9.962;2022-09-09T07:53:36;8.50;;;4.97;;
4748;SDS011;2388;53.582;9.962;2022-09-09T07:56:06;4.50;;;4.20;;
4748;SDS011;2388;53.582;9.962;2022-09-09T07:58:34;5.27;;;4.73;;
4748;SDS011;2388;53.582;9.962;2022-09-09T08:01:07;4.10;;;3.70;;
4748;SDS011;2388;53.582;9.962;2022-09-09T08:03:33;4.53;;;3.60;;
4748;SDS011;2388;53.582;9.962;2022-09-09T08:06:00;5.13;;;4.07;;
4748;SDS011;2388;53.582;9.962;2022-09-09T08:08:27;5.10;;;3.83;;
4748;SDS011;2388;53.582;9.962;2022-09-09T08:10:53;7.23;;;5.03;;
4748;SDS011;2388;53.582;9.962;2022-09-09T08:13:18;4.53;;;4.13;;
4748;SDS011;2388;53.582;9.962;2022-09-09T08:15:44;4.30;;;4.00;;
4748;SDS011;2388;53.582;9.962;2022-09-09T08:18:10;8.03;;;4.40;;
4748;SDS011;2388;53.582;9.962;2022-09-09T08:20:36;5.47;;;4.97;;
4748;SDS011;2388;53.582;9.962;2022-09-09T08:23:02;6.00;;;4.50;;
4748;SDS011;2388;53.582;9.962;2022-09-09T08:25:27;6.83;;;4.13;;
4748;SDS011;2388;53.582;9.962;2022-09-09T08:27:53;6.53;;;3.60;;
4748;SDS011;2388;53.582;9.962;2022-09-09T08:30:19;5.37;;;3.87;;
4748;SDS011;2388;53.582;9.962;2022-09-09T08:32:44;5.33;;;4.77;;
4748;SDS011;2388;53.582;9.962;2022-09-09T08:35:10;4.70;;;4.20;;
4748;SDS011;2388;53.582;9.962;2022-09-09T08:37:36;6.10;;;4.60;;
4748;SDS011;2388;53.582;9.962;2022-09-09T08:40:01;3.83;;;3.37;;
4748;SDS011;2388;53.582;9.962;2022-09-09T08:42:32;29.50;;;22.43;;
4748;SDS011;2388;53.582;9.962;2022-09-09T08:47:42;4.93;;;3.60;;
4748;SDS011;2388;53.582;9.962;2022-09-09T08:52:59;5.60;;;4.60;;
4748;SDS011;2388;53.582;9.962;2022-09-09T08:55:50;9.57;;;3.30;;
4748;SDS011;2388;53.582;9.962;2022-09-09T08:58:21;4.70;;;2.90;;
4748;SDS011;2388;53.582;9.962;2022-09-09T09:01:02;3.20;;;2.67;;
4748;SDS011;2388;53.582;9.962;2022-09-09T09:09:21;3.37;;;1.90;;
4748;SDS011;2388;53.582;9.962;2022-09-09T09:12:13;5.93;;;2.20;;
4748;SDS011;2388;53.582;9.962;2022-09-09T09:14:42;2.47;;;2.07;;
4748;SDS011;2388;53.582;9.962;2022-09-09T09:17:12;3.47;;;2.53;;
4748;SDS011;2388;53.582;9.962;2022-09-09T09:19:41;5.20;;;3.00;;
4748;SDS011;2388;53.582;9.962;2022-09-09T09:24:51;3.00;;;2.70;;
4748;SDS011;2388;53.582;9.962;2022-09-09T09:30:19;2.50;;;2.30;;
4748;SDS011;2388;53.582;9.962;2022-09-09T09:33:31;5.30;;;2.30;;
4748;SDS011;2388;53.582;9.962;2022-09-09T09:35:44;2.67;;;1.53;;
4748;SDS011;2388;53.582;9.962;2022-09-09T09:40:50;2.60;;;1.60;;
4748;SDS011;2388;53.582;9.962;2022-09-09T09:43:21;4.07;;;1.60;;
4748;SDS011;2388;53.582;9.962;2022-09-09T09:45:50;2.50;;;1.60;;
4748;SDS011;2388;53.582;9.962;2022-09-09T09:48:15;6.30;;;1.97;;
4748;SDS011;2388;53.582;9.962;2022-09-09T09:50:46;5.07;;;1.80;;
4748;SDS011;2388;53.582;9.962;2022-09-09T09:53:18;2.40;;;1.60;;
4748;SDS011;2388;53.582;9.962;2022-09-09T09:55:56;2.50;;;1.47;;
4748;SDS011;2388;53.582;9.962;2022-09-09T09:58:24;4.97;;;1.30;;
4748;SDS011;2388;53.582;9.962;2022-09-09T10:00:52;5.20;;;1.80;;
4748;SDS011;2388;53.582;9.962;2022-09-09T10:03:25;4.43;;;2.43;;
4748;SDS011;2388;53.582;9.962;2022-09-09T10:05:56;2.13;;;1.37;;
4748;SDS011;2388;53.582;9.962;2022-09-09T10:08:23;2.47;;;1.70;;
4748;SDS011;2388;53.582;9.962;2022-09-09T10:13:39;12.33;;;10.17;;
4748;SDS011;2388;53.582;9.962;2022-09-09T10:16:29;7.30;;;6.60;;
4748;SDS011;2388;53.582;9.962;2022-09-09T10:19:17;2.83;;;1.87;;
4748;SDS011;2388;53.582;9.962;2022-09-09T10:22:40;3.47;;;1.60;;
4748;SDS011;2388;53.582;9.962;2022-09-09T10:33:33;2.20;;;1.13;;
4748;SDS011;2388;53.582;9.962;2022-09-09T10:36:21;2.10;;;1.33;;
4748;SDS011;2388;53.582;9.962;2022-09-09T10:39:16;2.47;;;1.20;;
4748;SDS011;2388;53.582;9.962;2022-09-09T10:42:00;2.40;;;1.50;;
4748;SDS011;2388;53.582;9.962;2022-09-09T10:47:38;3.33;;;1.93;;
4748;SDS011;2388;53.582;9.962;2022-09-09T10:53:36;2.80;;;1.53;;
4748;SDS011;2388;53.582;9.962;2022-09-09T10:56:12;1.83;;;1.40;;
4748;SDS011;2388;53.582;9.962;2022-09-09T10:58:42;6.10;;;4.40;;
4748;SDS011;2388;53.582;9.962;2022-09-09T11:01:18;4.00;;;1.90;;
4748;SDS011;2388;53.582;9.962;2022-09-09T11:04:09;2.40;;;1.17;;
4748;SDS011;2388;53.582;9.962;2022-09-09T11:06:43;1.40;;;1.13;;
4748;SDS011;2388;53.582;9.962;2022-09-09T11:09:14;1.27;;;0.90;;
4748;SDS011;2388;53.582;9.962;2022-09-09T11:11:49;1.37;;;0.93;;
4748;SDS011;2388;53.582;9.962;2022-09-09T11:17:24;3.60;;;1.03;;
4748;SDS011;2388;53.582;9.962;2022-09-09T11:20:00;2.40;;;1.10;;
4748;SDS011;2388;53.582;9.962;2022-09-09T11:22:33;2.13;;;1.30;;
4748;SDS011;2388;53.582;9.962;2022-09-09T11:28:10;3.43;;;1.20;;
4748;SDS011;2388;53.582;9.962;2022-09-09T11:36:29;1.50;;;0.80;;
4748;SDS011;2388;53.582;9.962;2022-09-09T11:42:24;2.93;;;0.90;;
4748;SDS011;2388;53.582;9.962;2022-09-09T11:44:50;6.10;;;1.00;;
4748;SDS011;2388;53.582;9.962;2022-09-09T11:47:28;3.80;;;0.83;;
4748;SDS011;2388;53.582;9.962;2022-09-09T11:50:06;1.33;;;1.10;;
4748;SDS011;2388;53.582;9.962;2022-09-09T11:52:40;3.90;;;1.00;;
4748;SDS011;2388;53.582;9.962;2022-09-09T11:55:23;1.93;;;0.80;;
4748;SDS011;2388;53.582;9.962;2022-09-09T11:57:57;2.53;;;0.97;;
4748;SDS011;2388;53.582;9.962;2022-09-09T12:00:48;1.23;;;0.70;;
4748;SDS011;2388;53.582;9.962;2022-09-09T12:06:10;1.90;;;1.10;;
4748;SDS011;2388;53.582;9.962;2022-09-09T12:08:41;4.00;;;1.40;;
4748;SDS011;2388;53.582;9.962;2022-09-09T12:11:09;4.40;;;1.70;;
4748;SDS011;2388;53.582;9.962;2022-09-09T12:13:35;3.67;;;1.67;;
4748;SDS011;2388;53.582;9.962;2022-09-09T12:16:01;6.47;;;1.80;;
4748;SDS011;2388;53.582;9.962;2022-09-09T12:18:37;2.53;;;1.67;;
4748;SDS011;2388;53.582;9.962;2022-09-09T12:21:31;8.80;;;1.70;;
4748;SDS011;2388;53.582;9.962;2022-09-09T12:29:38;3.80;;;1.90;;
4748;SDS011;2388;53.582;9.962;2022-09-09T12:32:20;5.43;;;1.73;;
4748;SDS011;2388;53.582;9.962;2022-09-09T12:34:53;4.83;;;1.60;;
4748;SDS011;2388;53.582;9.962;2022-09-09T12:37:27;3.47;;;1.20;;
4748;SDS011;2388;53.582;9.962;2022-09-09T12:39:58;5.97;;;1.80;;
4748;SDS011;2388;53.582;9.962;2022-09-09T12:42:25;1.80;;;1.30;;
4748;SDS011;2388;53.582;9.962;2022-09-09T12:44:56;4.20;;;1.67;;
4748;SDS011;2388;53.582;9.962;2022-09-09T12:47:36;4.40;;;3.77;;
4748;SDS011;2388;53.582;9.962;2022-09-09T12:53:24;2.50;;;1.93;;
4748;SDS011;2388;53.582;9.962;2022-09-09T12:56:09;3.13;;;2.27;;
4748;SDS011;2388;53.582;9.962;2022-09-09T12:58:45;2.37;;;1.67;;
4748;SDS011;2388;53.582;9.962;2022-09-09T13:01:21;6.20;;;1.70;;
4748;SDS011;2388;53.582;9.962;2022-09-09T13:03:47;3.37;;;1.67;;
4748;SDS011;2388;53.582;9.962;2022-09-09T13:06:16;4.87;;;2.07;;
4748;SDS011;2388;53.582;9.962;2022-09-09T13:08:45;3.33;;;2.03;;
4748;SDS011;2388;53.582;9.962;2022-09-09T13:11:12;5.53;;;1.80;;
4748;SDS011;2388;53.582;9.962;2022-09-09T13:13:41;3.37;;;1.50;;
4748;SDS011;2388;53.582;9.962;2022-09-09T13:16:27;5.20;;;1.80;;
4748;SDS011;2388;53.582;9.962;2022-09-09T13:21:31;4.67;;;2.23;;
4748;SDS011;2388;53.582;9.962;2022-09-09T13:24:02;2.10;;;1.60;;
4748;SDS011;2388;53.582;9.962;2022-09-09T13:26:32;3.13;;;2.20;;
4748;SDS011;2388;53.582;9.962;2022-09-09T13:29:19;7.67;;;2.43;;
4748;SDS011;2388;53.582;9.962;2022-09-09T13:31:44;4.90;;;2.80;;
4748;SDS011;2388;53.582;9.962;2022-09-09T13:34:22;5.40;;;2.80;;
4748;SDS011;2388;53.582;9.962;2022-09-09T13:36:55;6.20;;;2.80;;
4748;SDS011;2388;53.582;9.962;2022-09-09T13:39:30;4.50;;;2.27;;
4748;SDS011;2388;53.582;9.962;2022-09-09T13:41:58;6.77;;;2.20;;
4748;SDS011;2388;53.582;9.962;2022-09-09T13:44:25;7.30;;;2.30;;
4748;SDS011;2388;53.582;9.962;2022-09-09T13:49:41;3.57;;;1.70;;
4748;SDS011;2388;53.582;9.962;2022-09-09T13:52:14;4.90;;;2.00;;
4748;SDS011;2388;53.582;9.962;2022-09-09T13:54:41;5.40;;;2.57;;
4748;SDS011;2388;53.582;9.962;2022-09-09T13:57:18;7.60;;;2.60;;
4748;SDS011;2388;53.582;9.962;2022-09-09T13:59:49;3.83;;;2.07;;
4748;SDS011;2388;53.582;9.962;2022-09-09T14:02:15;3.90;;;2.70;;
4748;SDS011;2388;53.582;9.962;2022-09-09T14:04:41;7.50;;;2.40;;
4748;SDS011;2388;53.582;9.962;2022-09-09T14:07:17;2.43;;;2.20;;
4748;SDS011;2388;53.582;9.962;2022-09-09T14:09:43;7.73;;;2.80;;
4748;SDS011;2388;53.582;9.962;2022-09-09T14:12:13;2.87;;;2.57;;
4748;SDS011;2388;53.582;9.962;2022-09-09T14:14:40;3.87;;;2.50;;
4748;SDS011;2388;53.582;9.962;2022-09-09T14:17:07;5.30;;;3.10;;
4748;SDS011;2388;53.582;9.962;2022-09-09T14:19:33;3.67;;;2.90;;
4748;SDS011;2388;53.582;9.962;2022-09-09T14:21:58;6.00;;;2.23;;
4748;SDS011;2388;53.582;9.962;2022-09-09T14:24:24;3.50;;;2.37;;
4748;SDS011;2388;53.582;9.962;2022-09-09T14:26:50;3.30;;;2.33;;
4748;SDS011;2388;53.582;9.962;2022-09-09T14:29:16;2.90;;;2.40;;
4748;SDS011;2388;53.582;9.962;2022-09-09T14:31:41;8.53;;;2.77;;
4748;SDS011;2388;53.582;9.962;2022-09-09T14:34:07;3.67;;;2.60;;
4748;SDS011;2388;53.582;9.962;2022-09-09T14:36:32;4.13;;;2.23;;
4748;SDS011;2388;53.582;9.962;2022-09-09T14:38:58;4.70;;;2.37;;
4748;SDS011;2388;53.582;9.962;2022-09-09T14:41:24;7.43;;;2.70;;
4748;SDS011;2388;53.582;9.962;2022-09-09T14:43:50;5.97;;;2.57;;
4748;SDS011;2388;53.582;9.962;2022-09-09T14:46:17;3.20;;;2.90;;
4748;SDS011;2388;53.582;9.962;2022-09-09T14:48:44;2.50;;;2.03;;
4748;SDS011;2388;53.582;9.962;2022-09-09T14:51:14;3.77;;;1.90;;
4748;SDS011;2388;53.582;9.962;2022-09-09T14:53:52;6.33;;;2.90;;
4748;SDS011;2388;53.582;9.962;2022-09-09T14:56:20;2.77;;;1.93;;
4748;SDS011;2388;53.582;9.962;2022-09-09T14:58:48;2.30;;;1.93;;
4748;SDS011;2388;53.582;9.962;2022-09-09T15:01:14;1.70;;;1.60;;
4748;SDS011;2388;53.582;9.962;2022-09-09T15:03:42;9.17;;;1.97;;
4748;SDS011;2388;53.582;9.962;2022-09-09T15:06:14;2.97;;;2.10;;
4748;SDS011;2388;53.582;9.962;2022-09-09T15:08:41;2.63;;;1.63;;
4748;SDS011;2388;53.582;9.962;2022-09-09T15:11:08;2.33;;;1.37;;
4748;SDS011;2388;53.582;9.962;2022-09-09T15:13:35;2.80;;;1.53;;
4748;SDS011;2388;53.582;9.962;2022-09-09T15:18:33;2.70;;;1.60;;
4748;SDS011;2388;53.582;9.962;2022-09-09T15:21:01;10.70;;;8.27;;
4748;SDS011;2388;53.582;9.962;2022-09-09T15:23:33;13.53;;;8.80;;
4748;SDS011;2388;53.582;9.962;2022-09-09T15:25:59;5.73;;;2.20;;
4748;SDS011;2388;53.582;9.962;2022-09-09T15:28:24;7.50;;;2.20;;
4748;SDS011;2388;53.582;9.962;2022-09-09T15:30:50;5.10;;;1.73;;
4748;SDS011;2388;53.582;9.962;2022-09-09T15:33:17;5.03;;;1.90;;
4748;SDS011;2388;53.582;9.962;2022-09-09T15:35:44;3.33;;;1.83;;
4748;SDS011;2388;53.582;9.962;2022-09-09T15:38:10;4.80;;;2.83;;
4748;SDS011;2388;53.582;9.962;2022-09-09T15:40:36;4.03;;;3.03;;
4748;SDS011;2388;53.582;9.962;2022-09-09T15:43:02;4.30;;;2.50;;
4748;SDS011;2388;53.582;9.962;2022-09-09T15:45:29;4.03;;;2.67;;
4748;SDS011;2388;53.582;9.962;2022-09-09T15:47:56;8.40;;;2.63;;
4748;SDS011;2388;53.582;9.962;2022-09-09T15:50:21;4.93;;;3.07;;
4748;SDS011;2388;53.582;9.962;2022-09-09T15:52:47;5.23;;;3.77;;
4748;SDS011;2388;53.582;9.962;2022-09-09T15:55:13;7.53;;;2.40;;
4748;SDS011;2388;53.582;9.962;2022-09-09T15:57:38;4.27;;;2.97;;
4748;SDS011;2388;53.582;9.962;2022-09-09T16:00:05;4.17;;;2.43;;
4748;SDS011;2388;53.582;9.962;2022-09-09T16:02:31;3.27;;;2.10;;
4748;SDS011;2388;53.582;9.962;2022-09-09T16:04:57;2.20;;;1.50;;
4748;SDS011;2388;53.582;9.962;2022-09-09T16:07:23;2.50;;;1.20;;
4748;SDS011;2388;53.582;9.962;2022-09-09T16:09:48;1.60;;;1.50;;
4748;SDS011;2388;53.582;9.962;2022-09-09T16:12:17;3.27;;;1.00;;
4748;SDS011;2388;53.582;9.962;2022-09-09T16:14:43;2.80;;;1.30;;
4748;SDS011;2388;53.582;9.962;2022-09-09T16:17:10;5.03;;;1.20;;
4748;SDS011;2388;53.582;9.962;2022-09-09T16:19:36;1.87;;;1.30;;
4748;SDS011;2388;53.582;9.962;2022-09-09T16:22:01;6.87;;;3.90;;
4748;SDS011;2388;53.582;9.962;2022-09-09T16:24:27;6.00;;;5.40;;
4748;SDS011;2388;53.582;9.962;2022-09-09T16:26:54;2.47;;;1.80;;
4748;SDS011;2388;53.582;9.962;2022-09-09T16:29:20;2.63;;;1.83;;
4748;SDS011;2388;53.582;9.962;2022-09-09T16:31:51;3.70;;;1.93;;
4748;SDS011;2388;53.582;9.962;2022-09-09T16:34:17;3.33;;;1.87;;
4748;SDS011;2388;53.582;9.962;2022-09-09T16:36:43;3.23;;;1.77;;
4748;SDS011;2388;53.582;9.962;2022-09-09T16:39:11;4.30;;;1.80;;
4748;SDS011;2388;53.582;9.962;2022-09-09T16:41:38;2.60;;;1.60;;
4748;SDS011;2388;53.582;9.962;2022-09-09T16:44:06;4.20;;;2.17;;
4748;SDS011;2388;53.582;9.962;2022-09-09T16:46:34;3.23;;;1.83;;
4748;SDS011;2388;53.582;9.962;2022-09-09T16:49:02;5.97;;;2.63;;
4748;SDS011;2388;53.582;9.962;2022-09-09T16:51:37;3.70;;;1.70;;
4748;SDS011;2388;53.582;9.962;2022-09-09T16:54:05;1.53;;;1.43;;
4748;SDS011;2388;53.582;9.962;2022-09-09T16:56:32;3.17;;;2.17;;
4748;SDS011;2388;53.582;9.962;2022-09-09T16:59:00;2.80;;;2.37;;
4748;SDS011;2388;53.582;9.962;2022-09-09T17:01:28;2.63;;;2.10;;
4748;SDS011;2388;53.582;9.962;2022-09-09T17:03:56;1.90;;;1.60;;
4748;SDS011;2388;53.582;9.962;2022-09-09T17:06:23;1.60;;;1.50;;